createdAt,value
2023-12-09T00:01:01.393Z,5.71
2023-12-09T00:03:29.012Z,5.94
2023-12-09T00:05:56.478Z,5.69
2023-12-09T00:08:23.867Z,5.75
2023-12-09T00:10:51.392Z,5.87
2023-12-09T00:13:18.793Z,5.58
2023-12-09T00:15:46.104Z,5.55
2023-12-09T00:18:14.318Z,5.51
2023-12-09T00:20:41.837Z,5.91
2023-12-09T00:23:10.490Z,5.92
2023-12-09T00:25:38.106Z,5.32
2023-12-09T00:28:05.661Z,5.70
2023-12-09T00:30:33.259Z,5.80
2023-12-09T00:33:00.957Z,5.87
2023-12-09T00:35:28.468Z,5.76
2023-12-09T00:37:55.741Z,5.58
2023-12-09T00:40:23.861Z,5.80
2023-12-09T00:42:51.109Z,5.73
2023-12-09T00:45:18.619Z,5.66
2023-12-09T00:47:46.090Z,5.46
2023-12-09T00:50:13.576Z,5.29
2023-12-09T00:52:40.839Z,5.35
2023-12-09T00:55:08.611Z,5.32
2023-12-09T00:57:35.849Z,5.12
2023-12-09T01:00:05.618Z,5.56
2023-12-09T01:02:33.471Z,5.51
2023-12-09T01:05:00.841Z,5.13
2023-12-09T01:07:28.456Z,5.65
2023-12-09T01:09:55.790Z,5.26
2023-12-09T01:12:23.179Z,5.71
2023-12-09T01:14:50.673Z,5.38
2023-12-09T01:17:18.172Z,5.62
2023-12-09T01:19:45.605Z,5.50
2023-12-09T01:22:13.713Z,5.33
2023-12-09T01:24:41.129Z,4.66
2023-12-09T01:27:08.524Z,5.21
2023-12-09T01:29:37.811Z,4.78
2023-12-09T01:32:05.364Z,5.55
2023-12-09T01:34:32.915Z,5.44
2023-12-09T01:37:00.656Z,5.33
2023-12-09T01:39:28.701Z,5.44
2023-12-09T01:41:57.463Z,5.10
2023-12-09T01:44:24.702Z,4.94
2023-12-09T01:46:52.242Z,5.36
2023-12-09T01:49:19.625Z,5.00
2023-12-09T01:51:47.275Z,5.31
2023-12-09T01:54:15.856Z,5.05
2023-12-09T01:56:43.594Z,5.14
2023-12-09T01:59:10.874Z,5.02
2023-12-09T02:01:39.072Z,4.85
2023-12-09T02:04:07.495Z,4.60
2023-12-09T02:06:35.246Z,3.88
2023-12-09T02:09:03.386Z,4.90
2023-12-09T02:11:36.524Z,4.86
2023-12-09T02:14:12.276Z,4.71
2023-12-09T02:16:45.353Z,4.79
2023-12-09T02:19:14.700Z,4.76
2023-12-09T02:22:05.005Z,4.70
2023-12-09T02:24:33.515Z,4.46
2023-12-09T02:27:09.939Z,4.61
2023-12-09T02:29:53.994Z,4.55
2023-12-09T02:32:23.751Z,4.53
2023-12-09T02:34:53.431Z,4.47
2023-12-09T02:37:22.771Z,4.17
2023-12-09T02:39:50.395Z,3.72
2023-12-09T02:42:19.121Z,4.29
2023-12-09T02:44:46.966Z,4.37
2023-12-09T02:47:15.840Z,4.14
2023-12-09T02:49:44.378Z,4.32
2023-12-09T02:52:12.488Z,4.41
2023-12-09T02:54:39.969Z,4.19
2023-12-09T02:57:07.325Z,3.97
2023-12-09T02:59:35.519Z,4.13
2023-12-09T03:02:02.763Z,4.20
2023-12-09T03:04:30.354Z,4.17
2023-12-09T03:06:59.015Z,3.85
2023-12-09T03:09:26.462Z,4.16
2023-12-09T03:11:56.003Z,3.81
2023-12-09T03:14:25.179Z,4.07
2023-12-09T03:16:52.439Z,4.33
2023-12-09T03:19:19.872Z,3.92
2023-12-09T03:21:47.204Z,3.29
2023-12-09T03:24:14.604Z,4.35
2023-12-09T03:26:41.854Z,3.02
2023-12-09T03:29:09.255Z,3.95
2023-12-09T03:31:42.196Z,4.48
2023-12-09T03:34:09.878Z,4.31
2023-12-09T03:39:05.202Z,4.46
2023-12-09T03:41:32.464Z,4.55
2023-12-09T03:44:00.086Z,4.57
2023-12-09T03:46:27.333Z,4.52
2023-12-09T03:51:22.344Z,4.04
2023-12-09T03:53:50.129Z,4.46
2023-12-09T03:56:23.264Z,4.35
2023-12-09T03:58:51.705Z,4.56
2023-12-09T04:01:19.612Z,4.55
2023-12-09T04:03:47.098Z,4.53
2023-12-09T04:06:14.414Z,4.29
2023-12-09T04:08:41.878Z,4.50
2023-12-09T04:11:09.250Z,4.35
2023-12-09T04:13:36.924Z,4.35
2023-12-09T04:16:06.008Z,4.15
2023-12-09T04:18:33.604Z,3.80
2023-12-09T04:21:01.128Z,3.85
2023-12-09T04:23:28.498Z,4.31
2023-12-09T04:25:55.803Z,4.22
2023-12-09T04:28:23.417Z,4.36
2023-12-09T04:30:50.645Z,4.21
2023-12-09T04:33:18.089Z,4.16
2023-12-09T04:35:45.433Z,4.23
2023-12-09T04:38:12.928Z,4.28
2023-12-09T04:40:40.390Z,4.34
2023-12-09T04:43:08.009Z,4.34
2023-12-09T04:45:35.455Z,4.12
2023-12-09T04:48:04.981Z,4.34
2023-12-09T04:50:32.465Z,4.38
2023-12-09T04:52:59.761Z,4.38
2023-12-09T04:55:27.931Z,3.89
2023-12-09T04:57:56.030Z,3.90
2023-12-09T05:00:23.398Z,4.01
2023-12-09T05:02:52.269Z,4.34
2023-12-09T05:05:20.433Z,4.35
2023-12-09T05:07:49.086Z,4.07
2023-12-09T05:10:16.685Z,4.13
2023-12-09T05:12:44.028Z,3.97
2023-12-09T05:15:12.314Z,3.03
2023-12-09T05:17:39.748Z,4.27
2023-12-09T05:20:08.148Z,4.15
2023-12-09T05:22:35.416Z,4.52
2023-12-09T05:25:03.815Z,4.25
2023-12-09T05:27:31.159Z,4.60
2023-12-09T05:29:58.550Z,4.11
2023-12-09T05:32:26.081Z,4.32
2023-12-09T05:34:53.697Z,4.87
2023-12-09T05:37:23.017Z,4.47
2023-12-09T05:39:50.549Z,4.64
2023-12-09T05:42:18.008Z,5.00
2023-12-09T05:44:45.407Z,4.70
2023-12-09T05:47:12.810Z,5.23
2023-12-09T05:49:40.345Z,5.26
2023-12-09T05:52:07.654Z,4.98
2023-12-09T05:54:38.408Z,5.15
2023-12-09T05:57:06.425Z,5.41
2023-12-09T05:59:33.654Z,5.18
2023-12-09T06:02:01.271Z,5.38
2023-12-09T06:04:28.633Z,5.44
2023-12-09T06:06:56.104Z,5.63
2023-12-09T06:09:23.608Z,5.66
2023-12-09T06:11:52.867Z,5.57
2023-12-09T06:14:20.157Z,5.21
2023-12-09T06:16:47.640Z,5.96
2023-12-09T06:19:15.148Z,5.88
2023-12-09T06:21:42.581Z,5.76
2023-12-09T06:24:09.973Z,5.96
2023-12-09T06:26:44.093Z,6.12
2023-12-09T06:29:16.122Z,6.21
2023-12-09T06:31:44.300Z,6.15
2023-12-09T06:34:12.203Z,6.40
2023-12-09T06:36:39.814Z,6.51
2023-12-09T06:39:07.211Z,6.58
2023-12-09T06:41:34.576Z,5.82
2023-12-09T06:44:01.940Z,6.74
2023-12-09T06:46:29.294Z,6.64
2023-12-09T06:48:56.699Z,6.62
2023-12-09T06:51:24.271Z,6.77
2023-12-09T06:53:51.596Z,7.02
2023-12-09T06:56:21.577Z,6.67
2023-12-09T06:58:49.539Z,7.03
2023-12-09T07:01:29.661Z,7.10
2023-12-09T07:03:57.658Z,6.86
2023-12-09T07:06:30.670Z,6.91
2023-12-09T07:08:58.760Z,6.94
2023-12-09T07:11:26.223Z,7.00
2023-12-09T07:13:53.630Z,7.29
2023-12-09T07:16:21.052Z,6.99
2023-12-09T07:18:52.849Z,7.07
2023-12-09T07:21:20.456Z,7.47
2023-12-09T07:23:47.842Z,7.32
2023-12-09T07:26:15.864Z,7.57
2023-12-09T07:28:44.448Z,7.43
2023-12-09T07:31:12.762Z,7.34
2023-12-09T07:33:40.064Z,7.82
2023-12-09T07:36:08.524Z,7.87
2023-12-09T07:38:36.143Z,7.74
2023-12-09T07:41:04.021Z,7.78
2023-12-09T07:43:33.032Z,7.83
2023-12-09T07:46:00.570Z,7.74
2023-12-09T07:48:28.988Z,7.66
2023-12-09T07:50:56.488Z,7.58
2023-12-09T07:53:24.626Z,7.81
2023-12-09T07:55:52.113Z,7.60
2023-12-09T07:58:19.519Z,7.87
2023-12-09T08:00:47.196Z,7.84
2023-12-09T08:03:14.666Z,7.47
2023-12-09T08:05:43.623Z,8.01
2023-12-09T08:08:12.562Z,7.48
2023-12-09T08:10:39.924Z,7.94
2023-12-09T08:13:09.956Z,7.75
2023-12-09T08:15:38.810Z,6.90
2023-12-09T08:18:06.521Z,7.93
2023-12-09T08:20:35.925Z,7.28
2023-12-09T08:23:04.982Z,7.96
2023-12-09T08:25:32.204Z,7.86
2023-12-09T08:27:59.612Z,8.16
2023-12-09T08:30:27.032Z,7.83
2023-12-09T08:32:54.938Z,8.10
2023-12-09T08:35:22.525Z,8.20
2023-12-09T08:37:50.296Z,8.29
2023-12-09T08:40:18.627Z,8.33
2023-12-09T08:42:47.163Z,8.29
2023-12-09T08:45:16.773Z,8.24
2023-12-09T08:47:45.718Z,8.23
2023-12-09T08:52:45.264Z,8.20
2023-12-09T08:55:12.503Z,8.11
2023-12-09T08:57:40.063Z,7.87
2023-12-09T09:00:09.805Z,7.89
2023-12-09T09:02:38.083Z,7.97
2023-12-09T09:05:06.391Z,7.92
2023-12-09T09:07:37.821Z,7.93
2023-12-09T09:10:05.877Z,7.65
2023-12-09T09:12:33.216Z,7.54
2023-12-09T09:15:04.597Z,7.67
2023-12-09T09:17:36.652Z,7.56
2023-12-09T09:20:06.993Z,7.69
2023-12-09T09:22:35.368Z,7.58
2023-12-09T09:25:02.799Z,7.58
2023-12-09T09:27:30.439Z,7.36
2023-12-09T09:29:57.890Z,7.64
2023-12-09T09:32:26.016Z,7.52
2023-12-09T09:34:56.100Z,7.58
2023-12-09T09:37:24.571Z,7.59
2023-12-09T09:39:52.743Z,7.64
2023-12-09T09:42:37.977Z,7.59
2023-12-09T09:45:27.137Z,7.42
2023-12-09T09:48:00.448Z,7.62
2023-12-09T09:50:28.274Z,7.78
2023-12-09T09:52:55.730Z,7.59
2023-12-09T09:55:24.338Z,7.75
2023-12-09T09:57:52.337Z,7.81
2023-12-09T10:00:21.078Z,7.59
2023-12-09T10:02:52.408Z,7.64
2023-12-09T10:05:23.732Z,7.60
2023-12-09T10:07:53.245Z,7.58
2023-12-09T10:10:20.938Z,7.61
2023-12-09T10:12:48.398Z,7.54
2023-12-09T10:15:15.741Z,7.60
2023-12-09T10:17:44.025Z,7.60
2023-12-09T10:20:12.430Z,7.61
2023-12-09T10:22:41.271Z,7.61
2023-12-09T10:25:09.229Z,7.68
2023-12-09T10:27:36.657Z,7.74
2023-12-09T10:30:04.897Z,7.73
2023-12-09T10:32:34.230Z,7.81
2023-12-09T10:35:04.522Z,7.84
2023-12-09T10:37:33.304Z,7.88
2023-12-09T10:40:05.334Z,7.87
2023-12-09T10:42:33.092Z,7.92
2023-12-09T10:45:05.089Z,7.78
2023-12-09T10:47:32.640Z,7.99
2023-12-09T10:50:00.084Z,7.96
2023-12-09T10:52:27.800Z,7.96
2023-12-09T10:54:55.388Z,7.96
2023-12-09T10:57:25.835Z,7.94
2023-12-09T10:59:55.272Z,7.95
2023-12-09T11:02:22.981Z,7.69
2023-12-09T11:04:51.826Z,7.92
2023-12-09T11:07:19.753Z,7.68
2023-12-09T11:09:47.866Z,7.70
2023-12-09T11:12:29.749Z,7.76
2023-12-09T11:15:09.090Z,7.96
2023-12-09T11:17:39.770Z,7.96
2023-12-09T11:20:16.159Z,8.03
2023-12-09T11:22:46.722Z,8.10
2023-12-09T11:25:27.500Z,8.15
2023-12-09T11:27:57.226Z,8.16
2023-12-09T11:30:38.880Z,8.16
2023-12-09T11:33:07.454Z,8.21
2023-12-09T11:35:36.451Z,8.26
2023-12-09T11:38:06.964Z,8.31
2023-12-09T11:40:34.754Z,8.33
2023-12-09T11:43:09.672Z,8.24
2023-12-09T11:45:38.458Z,8.20
2023-12-09T11:48:06.896Z,8.17
2023-12-09T11:50:34.584Z,8.10
2023-12-09T11:53:01.846Z,7.80
2023-12-09T11:55:30.678Z,7.96
2023-12-09T11:57:58.240Z,7.98
2023-12-09T12:00:25.533Z,8.04
2023-12-09T12:02:53.010Z,7.84
2023-12-09T12:05:21.287Z,7.89
2023-12-09T12:07:49.151Z,7.81
2023-12-09T12:10:16.565Z,7.77
2023-12-09T12:12:45.821Z,7.86
2023-12-09T12:15:14.072Z,7.76
2023-12-09T12:17:45.363Z,7.72
2023-12-09T12:20:14.132Z,7.88
2023-12-09T12:22:42.388Z,7.90
2023-12-09T12:25:10.891Z,7.63
2023-12-09T12:27:46.628Z,7.76
2023-12-09T12:30:17.376Z,7.73
2023-12-09T12:32:56.530Z,7.72
2023-12-09T12:35:26.479Z,7.66
2023-12-09T12:37:56.516Z,7.83
2023-12-09T12:40:24.068Z,7.85
2023-12-09T12:42:51.617Z,7.86
2023-12-09T12:45:27.048Z,7.81
2023-12-09T12:47:56.400Z,7.77
2023-12-09T12:50:23.785Z,7.71
2023-12-09T12:52:52.336Z,7.79
2023-12-09T12:55:19.821Z,7.65
2023-12-09T12:57:47.602Z,7.66
2023-12-09T13:00:15.979Z,7.53
2023-12-09T13:02:44.716Z,7.53
2023-12-09T13:05:12.776Z,7.05
2023-12-09T13:07:45.068Z,7.45
2023-12-09T13:10:13.096Z,7.47
2023-12-09T13:12:40.634Z,7.48
2023-12-09T13:15:08.749Z,7.44
2023-12-09T13:17:36.852Z,7.37
2023-12-09T13:20:04.685Z,7.32
2023-12-09T13:22:32.063Z,7.31
2023-12-09T13:24:59.571Z,7.28
2023-12-09T13:27:27.932Z,7.04
2023-12-09T13:29:55.915Z,7.07
2023-12-09T13:32:23.177Z,7.04
2023-12-09T13:34:52.572Z,7.14
2023-12-09T13:37:20.205Z,7.23
2023-12-09T13:39:47.681Z,7.26
2023-12-09T13:42:16.323Z,7.32
2023-12-09T13:44:43.977Z,7.07
2023-12-09T13:47:11.346Z,7.16
2023-12-09T13:49:38.864Z,7.01
2023-12-09T13:52:06.770Z,6.98
2023-12-09T13:54:34.610Z,7.05
2023-12-09T13:57:02.103Z,6.94
2023-12-09T13:59:29.681Z,6.60
2023-12-09T14:01:57.824Z,6.64
2023-12-09T14:04:25.176Z,6.58
2023-12-09T14:06:52.632Z,6.26
2023-12-09T14:09:20.213Z,5.98
2023-12-09T14:11:47.507Z,5.95
2023-12-09T14:14:15.274Z,5.60
2023-12-09T14:16:44.070Z,5.86
2023-12-09T14:19:14.502Z,5.75
2023-12-09T14:21:42.004Z,5.76
2023-12-09T14:24:09.996Z,5.55
2023-12-09T14:26:37.701Z,5.62
2023-12-09T14:29:05.102Z,5.51
2023-12-09T14:31:32.540Z,5.40
2023-12-09T14:34:03.182Z,5.63
2023-12-09T14:36:31.255Z,5.66
2023-12-09T14:38:58.653Z,5.84
2023-12-09T14:41:26.097Z,5.82
2023-12-09T14:43:59.679Z,5.78
2023-12-09T14:46:33.139Z,4.76
2023-12-09T14:49:01.588Z,5.53
2023-12-09T14:51:40.242Z,5.60
2023-12-09T14:54:16.525Z,5.05
2023-12-09T14:56:46.912Z,5.52
2023-12-09T14:59:16.715Z,5.72
2023-12-09T15:01:50.408Z,5.57
2023-12-09T15:04:18.653Z,5.79
2023-12-09T15:06:48.153Z,5.74
2023-12-09T15:09:17.602Z,5.93
2023-12-09T15:11:45.010Z,5.98
2023-12-09T15:14:12.510Z,5.99
2023-12-09T15:16:39.976Z,5.91
2023-12-09T15:19:09.975Z,6.00
2023-12-09T15:21:37.931Z,5.91
2023-12-09T15:24:06.924Z,6.09
2023-12-09T15:26:35.240Z,5.94
2023-12-09T15:29:02.579Z,5.90
2023-12-09T15:31:31.842Z,5.96
2023-12-09T15:34:00.483Z,6.22
2023-12-09T15:36:28.484Z,6.14
2023-12-09T15:38:55.922Z,6.41
2023-12-09T15:41:23.466Z,6.13
2023-12-09T15:43:51.226Z,6.35
2023-12-09T15:46:19.089Z,6.51
2023-12-09T15:48:46.831Z,6.32
2023-12-09T15:51:15.506Z,6.61
2023-12-09T15:53:43.143Z,6.55
2023-12-09T15:56:10.908Z,6.39
2023-12-09T15:58:38.379Z,6.53
2023-12-09T16:01:06.153Z,6.72
2023-12-09T16:03:33.869Z,6.44
2023-12-09T16:06:02.368Z,6.75
2023-12-09T16:08:29.792Z,6.76
2023-12-09T16:10:57.296Z,6.74
2023-12-09T16:13:25.024Z,6.47
2023-12-09T16:15:53.073Z,6.64
2023-12-09T16:18:20.681Z,6.80
2023-12-09T16:20:48.096Z,6.53
2023-12-09T16:23:15.650Z,6.83
2023-12-09T16:25:43.149Z,6.90
2023-12-09T16:28:10.569Z,6.94
2023-12-09T16:30:38.623Z,7.05
2023-12-09T16:33:06.261Z,7.15
2023-12-09T16:35:33.753Z,7.06
2023-12-09T16:38:01.115Z,7.09
2023-12-09T16:40:28.877Z,7.09
2023-12-09T16:42:56.509Z,7.03
2023-12-09T16:45:24.258Z,6.97
2023-12-09T16:47:52.769Z,6.94
2023-12-09T16:50:20.326Z,6.97
2023-12-09T16:52:47.627Z,7.11
2023-12-09T16:55:16.492Z,7.22
2023-12-09T16:57:45.031Z,7.25
2023-12-09T17:00:12.790Z,7.18
2023-12-09T17:02:40.346Z,7.14
2023-12-09T17:05:11.345Z,7.21
2023-12-09T17:07:39.105Z,7.24
2023-12-09T17:10:08.881Z,7.26
2023-12-09T17:12:38.104Z,7.22
2023-12-09T17:15:05.853Z,7.04
2023-12-09T17:17:33.482Z,6.77
2023-12-09T17:20:00.845Z,5.95
2023-12-09T17:22:32.466Z,6.04
2023-12-09T17:25:00.105Z,6.51
2023-12-09T17:27:27.882Z,5.79
2023-12-09T17:29:55.309Z,6.48
2023-12-09T17:32:22.898Z,6.50
2023-12-09T17:34:50.959Z,6.40
2023-12-09T17:37:18.526Z,6.39
2023-12-09T17:39:46.050Z,6.45
2023-12-09T17:42:13.730Z,6.51
2023-12-09T17:44:41.186Z,6.56
2023-12-09T17:47:08.575Z,6.60
2023-12-09T17:49:36.125Z,6.61
2023-12-09T17:52:03.639Z,6.58
2023-12-09T17:54:31.280Z,6.46
2023-12-09T17:56:58.628Z,6.46
2023-12-09T17:59:26.167Z,6.48
2023-12-09T18:01:54.395Z,6.43
2023-12-09T18:04:21.742Z,6.38
2023-12-09T18:06:49.113Z,6.34
2023-12-09T18:09:16.624Z,6.12
2023-12-09T18:11:44.240Z,6.24
2023-12-09T18:14:11.651Z,6.21
2023-12-09T18:16:39.103Z,6.20
2023-12-09T18:19:06.740Z,6.02
2023-12-09T18:21:34.593Z,6.07
2023-12-09T18:24:02.275Z,6.04
2023-12-09T18:26:32.861Z,5.91
2023-12-09T18:29:01.073Z,5.70
2023-12-09T18:31:29.207Z,5.87
2023-12-09T18:33:57.734Z,5.93
2023-12-09T18:36:25.467Z,5.95
2023-12-09T18:38:53.009Z,5.97
2023-12-09T18:41:20.543Z,5.97
2023-12-09T18:43:50.125Z,5.78
2023-12-09T18:46:17.967Z,6.10
2023-12-09T18:48:45.648Z,5.98
2023-12-09T18:51:13.184Z,5.91
2023-12-09T18:53:40.585Z,5.89
2023-12-09T18:56:08.285Z,5.83
2023-12-09T18:58:35.749Z,5.80
2023-12-09T19:01:08.040Z,5.82
2023-12-09T19:03:39.324Z,5.85
2023-12-09T19:06:07.513Z,5.96
2023-12-09T19:08:35.164Z,5.79
2023-12-09T19:11:02.578Z,6.03
2023-12-09T19:13:30.037Z,6.02
2023-12-09T19:15:59.736Z,5.98
2023-12-09T19:18:27.277Z,5.56
2023-12-09T19:20:54.729Z,6.12
2023-12-09T19:23:22.164Z,6.02
2023-12-09T19:25:49.636Z,5.84
2023-12-09T19:28:17.281Z,6.10
2023-12-09T19:30:44.728Z,6.21
2023-12-09T19:33:12.544Z,6.36
2023-12-09T19:35:40.059Z,6.35
2023-12-09T19:38:07.587Z,6.31
2023-12-09T19:40:35.760Z,6.35
2023-12-09T19:43:03.025Z,6.51
2023-12-09T19:45:30.336Z,6.53
2023-12-09T19:47:58.928Z,6.63
2023-12-09T19:50:26.337Z,6.58
2023-12-09T19:52:53.916Z,6.62
2023-12-09T19:55:21.432Z,5.98
2023-12-09T19:57:49.025Z,6.53
2023-12-09T20:00:16.651Z,6.59
2023-12-09T20:02:45.766Z,6.41
2023-12-09T20:05:13.908Z,6.75
2023-12-09T20:07:41.376Z,6.74
2023-12-09T20:10:09.390Z,6.45
2023-12-09T20:12:36.782Z,6.64
2023-12-09T20:15:07.663Z,6.72
2023-12-09T20:17:35.307Z,6.80
2023-12-09T20:20:02.825Z,6.37
2023-12-09T20:22:31.827Z,6.88
2023-12-09T20:24:59.436Z,6.87
2023-12-09T20:27:26.978Z,6.56
2023-12-09T20:29:55.521Z,6.87
2023-12-09T20:32:23.298Z,6.88
2023-12-09T20:34:50.852Z,6.27
2023-12-09T20:37:18.427Z,6.32
2023-12-09T20:39:45.822Z,6.09
2023-12-09T20:42:13.402Z,6.82
2023-12-09T20:44:41.584Z,6.81
2023-12-09T20:47:08.940Z,6.74
2023-12-09T20:49:37.359Z,6.67
2023-12-09T20:52:05.177Z,6.40
2023-12-09T20:54:32.643Z,6.88
2023-12-09T20:57:00.182Z,6.93
2023-12-09T20:59:27.728Z,6.37
2023-12-09T21:01:57.043Z,6.25
2023-12-09T21:04:24.656Z,6.82
2023-12-09T21:06:52.443Z,6.15
2023-12-09T21:09:22.570Z,6.67
2023-12-09T21:11:50.123Z,6.85
2023-12-09T21:14:17.878Z,6.92
2023-12-09T21:16:45.290Z,6.84
2023-12-09T21:19:13.248Z,6.65
2023-12-09T21:21:40.992Z,6.63
2023-12-09T21:24:08.632Z,6.52
2023-12-09T21:26:39.265Z,6.47
2023-12-09T21:29:08.074Z,6.34
2023-12-09T21:31:35.466Z,6.61
2023-12-09T21:34:03.838Z,6.67
2023-12-09T21:36:31.331Z,6.72
2023-12-09T21:38:58.789Z,6.74
2023-12-09T21:41:26.121Z,6.65
2023-12-09T21:43:53.548Z,6.72
2023-12-09T21:46:21.568Z,6.74
2023-12-09T21:48:49.603Z,6.77
2023-12-09T21:51:17.938Z,6.27
2023-12-09T21:53:45.665Z,6.67
2023-12-09T21:56:26.298Z,6.78
2023-12-09T21:58:54.151Z,6.74
2023-12-09T22:01:22.279Z,6.68
2023-12-09T22:03:50.629Z,6.67
2023-12-09T22:06:17.795Z,6.67
2023-12-09T22:08:45.757Z,6.60
2023-12-09T22:11:13.690Z,6.59
2023-12-09T22:13:41.826Z,6.57
2023-12-09T22:16:09.669Z,6.53
2023-12-09T22:18:37.690Z,6.54
2023-12-09T22:21:05.428Z,6.54
2023-12-09T22:23:32.801Z,6.48
2023-12-09T22:26:00.240Z,6.38
2023-12-09T22:28:31.698Z,6.30
2023-12-09T22:30:59.171Z,6.20
2023-12-09T22:33:26.634Z,6.15
2023-12-09T22:35:54.191Z,6.19
2023-12-09T22:38:21.476Z,6.16
2023-12-09T22:40:49.042Z,6.19
2023-12-09T22:43:16.457Z,5.88
2023-12-09T22:45:43.863Z,6.29
2023-12-09T22:48:11.683Z,6.22
2023-12-09T22:50:39.126Z,6.11
2023-12-09T22:53:06.578Z,6.15
2023-12-09T22:55:34.332Z,6.20
2023-12-09T22:58:01.701Z,5.78
2023-12-09T23:00:33.292Z,6.20
2023-12-09T23:03:02.867Z,6.08
2023-12-09T23:05:30.290Z,6.23
2023-12-09T23:07:58.284Z,6.26
2023-12-09T23:10:25.875Z,6.28
2023-12-09T23:12:53.394Z,6.27
2023-12-09T23:15:22.353Z,6.30
2023-12-09T23:17:50.183Z,6.28
2023-12-09T23:20:17.683Z,6.29
2023-12-09T23:22:45.111Z,6.25
2023-12-09T23:25:12.512Z,6.20
2023-12-09T23:27:39.907Z,6.17
2023-12-09T23:30:08.049Z,6.13
2023-12-09T23:32:35.475Z,6.12
2023-12-09T23:35:02.760Z,6.11
2023-12-09T23:37:30.319Z,6.09
2023-12-09T23:39:57.660Z,5.95
2023-12-09T23:42:25.100Z,5.92
2023-12-09T23:44:52.367Z,5.71
2023-12-09T23:47:19.858Z,6.11
2023-12-09T23:49:47.423Z,6.13
2023-12-09T23:52:14.973Z,6.08
2023-12-09T23:54:42.515Z,6.00
2023-12-09T23:57:10.122Z,6.11
2023-12-09T23:59:37.439Z,6.10
